sensor_id;sensor_type;location;lat;lon;timestamp;P1;durP1;ratioP1;P2;durP2;ratioP2
7541;SDS011;3812;50.006;8.230;2022-10-04T00:00:22;21.87;;;10.17;;
7541;SDS011;3812;50.006;8.230;2022-10-04T00:02:50;18.87;;;10.50;;
7541;SDS011;3812;50.006;8.230;2022-10-04T00:05:21;17.60;;;10.03;;
7541;SDS011;3812;50.006;8.230;2022-10-04T00:07:50;20.83;;;10.30;;
7541;SDS011;3812;50.006;8.230;2022-10-04T00:10:20;16.70;;;10.03;;
7541;SDS011;3812;50.006;8.230;2022-10-04T00:12:49;15.27;;;9.23;;
7541;SDS011;3812;50.006;8.230;2022-10-04T00:15:20;15.23;;;9.33;;
7541;SDS011;3812;50.006;8.230;2022-10-04T00:17:58;16.53;;;10.03;;
7541;SDS011;3812;50.006;8.230;2022-10-04T00:23:24;20.40;;;10.20;;
7541;SDS011;3812;50.006;8.230;2022-10-04T00:25:56;22.97;;;11.40;;
7541;SDS011;3812;50.006;8.230;2022-10-04T00:28:28;34.90;;;11.93;;
7541;SDS011;3812;50.006;8.230;2022-10-04T00:31:08;35.47;;;12.20;;
7541;SDS011;3812;50.006;8.230;2022-10-04T00:33:35;17.83;;;10.33;;
7541;SDS011;3812;50.006;8.230;2022-10-04T00:38:57;28.47;;;11.30;;
7541;SDS011;3812;50.006;8.230;2022-10-04T00:41:27;25.23;;;12.27;;
7541;SDS011;3812;50.006;8.230;2022-10-04T00:43:55;20.77;;;12.10;;
7541;SDS011;3812;50.006;8.230;2022-10-04T00:46:25;24.60;;;12.37;;
7541;SDS011;3812;50.006;8.230;2022-10-04T00:48:55;22.60;;;11.83;;
7541;SDS011;3812;50.006;8.230;2022-10-04T00:51:25;23.17;;;10.70;;
7541;SDS011;3812;50.006;8.230;2022-10-04T00:53:56;22.20;;;10.53;;
7541;SDS011;3812;50.006;8.230;2022-10-04T00:56:26;21.43;;;10.43;;
7541;SDS011;3812;50.006;8.230;2022-10-04T00:59:10;16.73;;;10.23;;
7541;SDS011;3812;50.006;8.230;2022-10-04T01:01:39;20.90;;;9.60;;
7541;SDS011;3812;50.006;8.230;2022-10-04T01:04:22;19.13;;;9.90;;
7541;SDS011;3812;50.006;8.230;2022-10-04T01:06:50;17.13;;;9.80;;
7541;SDS011;3812;50.006;8.230;2022-10-04T01:09:17;16.67;;;10.00;;
7541;SDS011;3812;50.006;8.230;2022-10-04T01:11:46;19.30;;;9.90;;
7541;SDS011;3812;50.006;8.230;2022-10-04T01:14:18;20.03;;;10.27;;
7541;SDS011;3812;50.006;8.230;2022-10-04T01:16:47;16.83;;;10.70;;
7541;SDS011;3812;50.006;8.230;2022-10-04T01:19:23;16.17;;;9.27;;
7541;SDS011;3812;50.006;8.230;2022-10-04T01:21:56;18.43;;;9.87;;
7541;SDS011;3812;50.006;8.230;2022-10-04T01:24:25;14.67;;;9.23;;
7541;SDS011;3812;50.006;8.230;2022-10-04T01:26:59;20.87;;;10.20;;
7541;SDS011;3812;50.006;8.230;2022-10-04T01:29:27;18.60;;;9.30;;
7541;SDS011;3812;50.006;8.230;2022-10-04T01:31:56;18.23;;;9.73;;
7541;SDS011;3812;50.006;8.230;2022-10-04T01:34:25;20.37;;;10.43;;
7541;SDS011;3812;50.006;8.230;2022-10-04T01:36:53;17.80;;;10.00;;
7541;SDS011;3812;50.006;8.230;2022-10-04T01:39:21;22.40;;;10.37;;
7541;SDS011;3812;50.006;8.230;2022-10-04T01:41:52;23.47;;;11.13;;
7541;SDS011;3812;50.006;8.230;2022-10-04T01:44:23;20.87;;;10.53;;
7541;SDS011;3812;50.006;8.230;2022-10-04T01:46:51;18.17;;;9.80;;
7541;SDS011;3812;50.006;8.230;2022-10-04T01:49:22;25.70;;;10.37;;
7541;SDS011;3812;50.006;8.230;2022-10-04T01:51:54;19.50;;;10.70;;
7541;SDS011;3812;50.006;8.230;2022-10-04T01:54:24;21.03;;;10.93;;
7541;SDS011;3812;50.006;8.230;2022-10-04T01:56:58;29.07;;;12.23;;
7541;SDS011;3812;50.006;8.230;2022-10-04T01:59:28;24.20;;;11.87;;
7541;SDS011;3812;50.006;8.230;2022-10-04T02:01:58;24.40;;;11.27;;
7541;SDS011;3812;50.006;8.230;2022-10-04T02:04:27;20.40;;;10.87;;
7541;SDS011;3812;50.006;8.230;2022-10-04T02:06:55;30.47;;;11.60;;
7541;SDS011;3812;50.006;8.230;2022-10-04T02:09:24;20.57;;;10.23;;
7541;SDS011;3812;50.006;8.230;2022-10-04T02:11:52;20.37;;;9.80;;
7541;SDS011;3812;50.006;8.230;2022-10-04T02:14:21;23.20;;;10.47;;
7541;SDS011;3812;50.006;8.230;2022-10-04T02:16:49;20.37;;;10.93;;
7541;SDS011;3812;50.006;8.230;2022-10-04T02:19:18;20.97;;;10.57;;
7541;SDS011;3812;50.006;8.230;2022-10-04T02:21:46;20.33;;;10.10;;
7541;SDS011;3812;50.006;8.230;2022-10-04T02:24:14;21.87;;;10.57;;
7541;SDS011;3812;50.006;8.230;2022-10-04T02:26:47;20.43;;;10.03;;
7541;SDS011;3812;50.006;8.230;2022-10-04T02:29:14;20.83;;;10.73;;
7541;SDS011;3812;50.006;8.230;2022-10-04T02:31:44;21.90;;;10.60;;
7541;SDS011;3812;50.006;8.230;2022-10-04T02:34:29;17.23;;;10.10;;
7541;SDS011;3812;50.006;8.230;2022-10-04T02:36:56;19.73;;;10.77;;
7541;SDS011;3812;50.006;8.230;2022-10-04T02:39:29;35.73;;;12.10;;
7541;SDS011;3812;50.006;8.230;2022-10-04T02:41:59;18.20;;;10.77;;
7541;SDS011;3812;50.006;8.230;2022-10-04T02:44:28;21.80;;;10.87;;
7541;SDS011;3812;50.006;8.230;2022-10-04T02:47:04;17.57;;;10.87;;
7541;SDS011;3812;50.006;8.230;2022-10-04T02:49:33;22.20;;;10.63;;
7541;SDS011;3812;50.006;8.230;2022-10-04T02:52:02;17.27;;;10.30;;
7541;SDS011;3812;50.006;8.230;2022-10-04T02:54:34;16.77;;;9.90;;
7541;SDS011;3812;50.006;8.230;2022-10-04T02:57:02;16.50;;;10.27;;
7541;SDS011;3812;50.006;8.230;2022-10-04T02:59:30;20.87;;;10.40;;
7541;SDS011;3812;50.006;8.230;2022-10-04T03:02:00;23.60;;;10.80;;
7541;SDS011;3812;50.006;8.230;2022-10-04T03:04:28;34.87;;;10.57;;
7541;SDS011;3812;50.006;8.230;2022-10-04T03:06:57;26.90;;;10.47;;
7541;SDS011;3812;50.006;8.230;2022-10-04T03:09:27;15.03;;;8.50;;
7541;SDS011;3812;50.006;8.230;2022-10-04T03:11:54;69.40;;;12.53;;
7541;SDS011;3812;50.006;8.230;2022-10-04T03:14:22;45.80;;;12.57;;
7541;SDS011;3812;50.006;8.230;2022-10-04T03:16:51;152.43;;;18.60;;
7541;SDS011;3812;50.006;8.230;2022-10-04T03:19:21;83.23;;;14.90;;
7541;SDS011;3812;50.006;8.230;2022-10-04T03:21:49;113.17;;;15.33;;
7541;SDS011;3812;50.006;8.230;2022-10-04T03:24:17;69.90;;;13.43;;
7541;SDS011;3812;50.006;8.230;2022-10-04T03:26:46;205.43;;;18.17;;
7541;SDS011;3812;50.006;8.230;2022-10-04T03:29:15;69.03;;;12.57;;
7541;SDS011;3812;50.006;8.230;2022-10-04T03:31:45;144.70;;;17.60;;
7541;SDS011;3812;50.006;8.230;2022-10-04T03:34:13;182.33;;;19.10;;
7541;SDS011;3812;50.006;8.230;2022-10-04T03:36:42;162.30;;;17.47;;
7541;SDS011;3812;50.006;8.230;2022-10-04T03:39:10;22.33;;;11.43;;
7541;SDS011;3812;50.006;8.230;2022-10-04T03:41:38;49.83;;;13.27;;
7541;SDS011;3812;50.006;8.230;2022-10-04T03:44:05;56.20;;;12.93;;
7541;SDS011;3812;50.006;8.230;2022-10-04T03:46:33;22.00;;;11.10;;
7541;SDS011;3812;50.006;8.230;2022-10-04T03:49:01;28.73;;;12.20;;
7541;SDS011;3812;50.006;8.230;2022-10-04T03:51:29;85.47;;;15.27;;
7541;SDS011;3812;50.006;8.230;2022-10-04T03:53:58;36.43;;;14.13;;
7541;SDS011;3812;50.006;8.230;2022-10-04T03:56:27;24.37;;;12.33;;
7541;SDS011;3812;50.006;8.230;2022-10-04T03:58:55;61.37;;;14.97;;
7541;SDS011;3812;50.006;8.230;2022-10-04T04:01:26;30.10;;;13.17;;
7541;SDS011;3812;50.006;8.230;2022-10-04T04:03:59;26.50;;;11.17;;
7541;SDS011;3812;50.006;8.230;2022-10-04T04:06:28;44.27;;;12.53;;
7541;SDS011;3812;50.006;8.230;2022-10-04T04:08:59;39.77;;;13.30;;
7541;SDS011;3812;50.006;8.230;2022-10-04T04:11:27;29.40;;;12.83;;
7541;SDS011;3812;50.006;8.230;2022-10-04T04:13:57;35.07;;;13.27;;
7541;SDS011;3812;50.006;8.230;2022-10-04T04:16:27;30.07;;;13.33;;
7541;SDS011;3812;50.006;8.230;2022-10-04T04:18:57;21.10;;;12.23;;
7541;SDS011;3812;50.006;8.230;2022-10-04T04:21:25;24.80;;;12.47;;
7541;SDS011;3812;50.006;8.230;2022-10-04T04:23:54;21.87;;;11.07;;
7541;SDS011;3812;50.006;8.230;2022-10-04T04:26:26;23.47;;;12.93;;
7541;SDS011;3812;50.006;8.230;2022-10-04T04:28:56;25.93;;;12.70;;
7541;SDS011;3812;50.006;8.230;2022-10-04T04:31:30;20.70;;;12.10;;
7541;SDS011;3812;50.006;8.230;2022-10-04T04:33:59;24.87;;;11.33;;
7541;SDS011;3812;50.006;8.230;2022-10-04T04:36:27;24.67;;;11.90;;
7541;SDS011;3812;50.006;8.230;2022-10-04T04:39:05;25.10;;;10.57;;
7541;SDS011;3812;50.006;8.230;2022-10-04T04:41:51;31.33;;;11.90;;
7541;SDS011;3812;50.006;8.230;2022-10-04T04:44:19;27.03;;;11.67;;
7541;SDS011;3812;50.006;8.230;2022-10-04T04:46:46;28.90;;;11.33;;
7541;SDS011;3812;50.006;8.230;2022-10-04T04:49:14;29.73;;;11.60;;
7541;SDS011;3812;50.006;8.230;2022-10-04T04:51:45;28.90;;;10.07;;
7541;SDS011;3812;50.006;8.230;2022-10-04T04:54:13;13.77;;;8.37;;
7541;SDS011;3812;50.006;8.230;2022-10-04T04:56:42;24.07;;;9.30;;
7541;SDS011;3812;50.006;8.230;2022-10-04T04:59:11;21.97;;;9.87;;
7541;SDS011;3812;50.006;8.230;2022-10-04T05:01:41;20.37;;;9.60;;
7541;SDS011;3812;50.006;8.230;2022-10-04T05:04:14;24.10;;;10.43;;
7541;SDS011;3812;50.006;8.230;2022-10-04T05:06:43;22.27;;;10.87;;
7541;SDS011;3812;50.006;8.230;2022-10-04T05:09:20;20.33;;;10.43;;
7541;SDS011;3812;50.006;8.230;2022-10-04T05:11:48;19.10;;;9.80;;
7541;SDS011;3812;50.006;8.230;2022-10-04T05:14:17;20.73;;;10.27;;
7541;SDS011;3812;50.006;8.230;2022-10-04T05:16:45;19.30;;;9.90;;
7541;SDS011;3812;50.006;8.230;2022-10-04T05:19:14;14.97;;;9.33;;
7541;SDS011;3812;50.006;8.230;2022-10-04T05:21:42;16.23;;;9.50;;
7541;SDS011;3812;50.006;8.230;2022-10-04T05:24:12;20.37;;;9.47;;
7541;SDS011;3812;50.006;8.230;2022-10-04T05:26:43;32.03;;;10.03;;
7541;SDS011;3812;50.006;8.230;2022-10-04T05:29:11;19.67;;;9.27;;
7541;SDS011;3812;50.006;8.230;2022-10-04T05:31:44;16.03;;;8.73;;
7541;SDS011;3812;50.006;8.230;2022-10-04T05:34:17;15.80;;;8.60;;
7541;SDS011;3812;50.006;8.230;2022-10-04T05:36:47;19.37;;;9.40;;
7541;SDS011;3812;50.006;8.230;2022-10-04T05:39:19;18.47;;;10.30;;
7541;SDS011;3812;50.006;8.230;2022-10-04T05:41:51;14.43;;;8.87;;
7541;SDS011;3812;50.006;8.230;2022-10-04T05:44:22;9.27;;;6.83;;
7541;SDS011;3812;50.006;8.230;2022-10-04T05:46:53;12.80;;;7.40;;
7541;SDS011;3812;50.006;8.230;2022-10-04T05:49:20;11.57;;;7.60;;
7541;SDS011;3812;50.006;8.230;2022-10-04T05:51:50;11.40;;;7.80;;
7541;SDS011;3812;50.006;8.230;2022-10-04T05:54:18;13.20;;;8.30;;
7541;SDS011;3812;50.006;8.230;2022-10-04T05:56:59;13.47;;;8.10;;
7541;SDS011;3812;50.006;8.230;2022-10-04T05:59:43;16.27;;;8.47;;
7541;SDS011;3812;50.006;8.230;2022-10-04T06:02:18;12.90;;;8.37;;
7541;SDS011;3812;50.006;8.230;2022-10-04T06:04:53;14.50;;;8.20;;
7541;SDS011;3812;50.006;8.230;2022-10-04T06:07:24;12.83;;;8.00;;
7541;SDS011;3812;50.006;8.230;2022-10-04T06:12:40;14.80;;;8.33;;
7541;SDS011;3812;50.006;8.230;2022-10-04T06:20:55;21.43;;;10.23;;
7541;SDS011;3812;50.006;8.230;2022-10-04T06:23:25;23.63;;;10.40;;
7541;SDS011;3812;50.006;8.230;2022-10-04T06:25:55;18.33;;;9.77;;
7541;SDS011;3812;50.006;8.230;2022-10-04T06:28:26;19.83;;;10.60;;
7541;SDS011;3812;50.006;8.230;2022-10-04T06:31:03;23.77;;;12.00;;
7541;SDS011;3812;50.006;8.230;2022-10-04T06:33:40;21.97;;;12.23;;
7541;SDS011;3812;50.006;8.230;2022-10-04T06:39:00;16.33;;;10.57;;
7541;SDS011;3812;50.006;8.230;2022-10-04T06:41:41;14.13;;;9.33;;
7541;SDS011;3812;50.006;8.230;2022-10-04T06:44:12;15.23;;;9.07;;
7541;SDS011;3812;50.006;8.230;2022-10-04T06:46:45;14.93;;;8.53;;
7541;SDS011;3812;50.006;8.230;2022-10-04T06:49:20;12.57;;;8.57;;
7541;SDS011;3812;50.006;8.230;2022-10-04T06:54:48;21.30;;;10.87;;
7541;SDS011;3812;50.006;8.230;2022-10-04T06:57:31;19.00;;;10.30;;
7541;SDS011;3812;50.006;8.230;2022-10-04T07:00:07;16.97;;;9.63;;
7541;SDS011;3812;50.006;8.230;2022-10-04T07:02:37;17.30;;;10.13;;
7541;SDS011;3812;50.006;8.230;2022-10-04T07:05:10;20.33;;;11.10;;
7541;SDS011;3812;50.006;8.230;2022-10-04T07:07:40;19.70;;;10.97;;
7541;SDS011;3812;50.006;8.230;2022-10-04T07:10:22;22.10;;;12.70;;
7541;SDS011;3812;50.006;8.230;2022-10-04T07:12:53;23.53;;;11.97;;
7541;SDS011;3812;50.006;8.230;2022-10-04T07:15:22;21.43;;;12.13;;
7541;SDS011;3812;50.006;8.230;2022-10-04T07:17:51;18.47;;;10.77;;
7541;SDS011;3812;50.006;8.230;2022-10-04T07:20:20;16.33;;;10.70;;
7541;SDS011;3812;50.006;8.230;2022-10-04T07:22:50;16.37;;;10.90;;
7541;SDS011;3812;50.006;8.230;2022-10-04T07:25:22;19.97;;;10.47;;
7541;SDS011;3812;50.006;8.230;2022-10-04T07:27:52;17.33;;;10.27;;
7541;SDS011;3812;50.006;8.230;2022-10-04T07:30:34;16.53;;;10.53;;
7541;SDS011;3812;50.006;8.230;2022-10-04T07:33:04;22.87;;;12.50;;
7541;SDS011;3812;50.006;8.230;2022-10-04T07:35:34;20.53;;;12.23;;
7541;SDS011;3812;50.006;8.230;2022-10-04T07:38:05;18.43;;;10.97;;
7541;SDS011;3812;50.006;8.230;2022-10-04T07:40:36;21.57;;;12.00;;
7541;SDS011;3812;50.006;8.230;2022-10-04T07:43:05;23.47;;;11.80;;
7541;SDS011;3812;50.006;8.230;2022-10-04T07:45:34;19.67;;;11.17;;
7541;SDS011;3812;50.006;8.230;2022-10-04T07:48:04;19.57;;;11.57;;
7541;SDS011;3812;50.006;8.230;2022-10-04T07:50:37;17.07;;;11.73;;
7541;SDS011;3812;50.006;8.230;2022-10-04T07:53:06;24.43;;;11.30;;
7541;SDS011;3812;50.006;8.230;2022-10-04T07:55:38;18.70;;;11.10;;
7541;SDS011;3812;50.006;8.230;2022-10-04T07:58:11;21.73;;;11.60;;
7541;SDS011;3812;50.006;8.230;2022-10-04T08:00:43;19.63;;;11.97;;
7541;SDS011;3812;50.006;8.230;2022-10-04T08:03:16;22.10;;;13.03;;
7541;SDS011;3812;50.006;8.230;2022-10-04T08:05:47;21.60;;;13.20;;
7541;SDS011;3812;50.006;8.230;2022-10-04T08:08:22;20.40;;;12.80;;
7541;SDS011;3812;50.006;8.230;2022-10-04T08:10:54;20.67;;;12.43;;
7541;SDS011;3812;50.006;8.230;2022-10-04T08:13:30;19.93;;;12.37;;
7541;SDS011;3812;50.006;8.230;2022-10-04T08:16:00;22.27;;;14.47;;
7541;SDS011;3812;50.006;8.230;2022-10-04T08:18:34;22.10;;;13.63;;
7541;SDS011;3812;50.006;8.230;2022-10-04T08:21:05;24.13;;;13.43;;
7541;SDS011;3812;50.006;8.230;2022-10-04T08:23:38;23.13;;;14.05;;
7541;SDS011;3812;50.006;8.230;2022-10-04T08:26:14;25.10;;;14.97;;
7541;SDS011;3812;50.006;8.230;2022-10-04T08:28:47;21.13;;;13.93;;
7541;SDS011;3812;50.006;8.230;2022-10-04T08:31:39;23.87;;;15.53;;
7541;SDS011;3812;50.006;8.230;2022-10-04T08:34:11;23.60;;;15.30;;
7541;SDS011;3812;50.006;8.230;2022-10-04T08:36:45;23.90;;;14.87;;
7541;SDS011;3812;50.006;8.230;2022-10-04T08:39:21;24.37;;;14.90;;
7541;SDS011;3812;50.006;8.230;2022-10-04T08:41:59;25.70;;;15.97;;
7541;SDS011;3812;50.006;8.230;2022-10-04T08:50:39;26.40;;;15.70;;
7541;SDS011;3812;50.006;8.230;2022-10-04T08:56:05;25.23;;;16.00;;
7541;SDS011;3812;50.006;8.230;2022-10-04T09:01:26;23.53;;;16.27;;
7541;SDS011;3812;50.006;8.230;2022-10-04T09:04:05;23.57;;;15.43;;
7541;SDS011;3812;50.006;8.230;2022-10-04T09:06:41;22.50;;;15.50;;
7541;SDS011;3812;50.006;8.230;2022-10-04T09:09:25;23.83;;;15.30;;
7541;SDS011;3812;50.006;8.230;2022-10-04T09:17:34;22.53;;;16.50;;
7541;SDS011;3812;50.006;8.230;2022-10-04T09:20:08;20.87;;;15.20;;
7541;SDS011;3812;50.006;8.230;2022-10-04T09:22:45;19.83;;;15.53;;
7541;SDS011;3812;50.006;8.230;2022-10-04T09:25:32;20.80;;;15.30;;
7541;SDS011;3812;50.006;8.230;2022-10-04T09:28:13;23.97;;;14.47;;
7541;SDS011;3812;50.006;8.230;2022-10-04T09:31:00;21.10;;;14.97;;
7541;SDS011;3812;50.006;8.230;2022-10-04T09:33:36;19.87;;;13.70;;
7541;SDS011;3812;50.006;8.230;2022-10-04T09:41:38;21.13;;;13.80;;
7541;SDS011;3812;50.006;8.230;2022-10-04T09:44:19;20.07;;;15.03;;
7541;SDS011;3812;50.006;8.230;2022-10-04T09:46:59;21.23;;;15.07;;
7541;SDS011;3812;50.006;8.230;2022-10-04T09:49:39;18.73;;;13.73;;
7541;SDS011;3812;50.006;8.230;2022-10-04T09:52:12;17.63;;;12.97;;
7541;SDS011;3812;50.006;8.230;2022-10-04T09:54:53;20.17;;;14.17;;
7541;SDS011;3812;50.006;8.230;2022-10-04T09:57:25;19.90;;;13.60;;
7541;SDS011;3812;50.006;8.230;2022-10-04T10:00:00;18.20;;;13.47;;
7541;SDS011;3812;50.006;8.230;2022-10-04T10:05:46;19.60;;;13.73;;
7541;SDS011;3812;50.006;8.230;2022-10-04T10:08:16;17.97;;;13.27;;
7541;SDS011;3812;50.006;8.230;2022-10-04T10:10:50;17.23;;;13.00;;
7541;SDS011;3812;50.006;8.230;2022-10-04T10:13:42;21.73;;;14.10;;
7541;SDS011;3812;50.006;8.230;2022-10-04T10:16:27;23.03;;;15.10;;
7541;SDS011;3812;50.006;8.230;2022-10-04T10:19:04;26.57;;;14.30;;
7541;SDS011;3812;50.006;8.230;2022-10-04T10:21:42;19.47;;;14.07;;
7541;SDS011;3812;50.006;8.230;2022-10-04T10:24:18;20.97;;;13.53;;
7541;SDS011;3812;50.006;8.230;2022-10-04T10:26:59;18.90;;;14.17;;
7541;SDS011;3812;50.006;8.230;2022-10-04T10:37:56;18.03;;;11.87;;
7541;SDS011;3812;50.006;8.230;2022-10-04T10:40:30;22.93;;;14.37;;
7541;SDS011;3812;50.006;8.230;2022-10-04T10:43:08;19.43;;;13.43;;
7541;SDS011;3812;50.006;8.230;2022-10-04T10:45:46;20.70;;;13.13;;
7541;SDS011;3812;50.006;8.230;2022-10-04T10:48:19;21.43;;;13.53;;
7541;SDS011;3812;50.006;8.230;2022-10-04T10:50:52;22.17;;;14.23;;
7541;SDS011;3812;50.006;8.230;2022-10-04T10:53:37;19.50;;;11.97;;
7541;SDS011;3812;50.006;8.230;2022-10-04T10:56:22;13.63;;;9.43;;
7541;SDS011;3812;50.006;8.230;2022-10-04T11:01:39;15.10;;;8.80;;
7541;SDS011;3812;50.006;8.230;2022-10-04T11:07:01;15.20;;;8.70;;
7541;SDS011;3812;50.006;8.230;2022-10-04T11:09:38;12.10;;;8.17;;
7541;SDS011;3812;50.006;8.230;2022-10-04T11:12:17;13.07;;;8.63;;
7541;SDS011;3812;50.006;8.230;2022-10-04T11:14:53;10.27;;;6.87;;
7541;SDS011;3812;50.006;8.230;2022-10-04T11:17:26;10.03;;;6.47;;
7541;SDS011;3812;50.006;8.230;2022-10-04T11:23:01;8.17;;;5.43;;
7541;SDS011;3812;50.006;8.230;2022-10-04T11:28:33;8.67;;;5.30;;
7541;SDS011;3812;50.006;8.230;2022-10-04T11:31:09;8.30;;;4.70;;
7541;SDS011;3812;50.006;8.230;2022-10-04T11:33:47;7.43;;;4.00;;
7541;SDS011;3812;50.006;8.230;2022-10-04T11:36:25;6.40;;;4.13;;
7541;SDS011;3812;50.006;8.230;2022-10-04T11:39:06;6.60;;;4.10;;
7541;SDS011;3812;50.006;8.230;2022-10-04T11:41:40;6.07;;;4.00;;
7541;SDS011;3812;50.006;8.230;2022-10-04T11:47:03;7.90;;;4.63;;
7541;SDS011;3812;50.006;8.230;2022-10-04T11:49:42;7.57;;;4.00;;
7541;SDS011;3812;50.006;8.230;2022-10-04T11:57:50;6.10;;;3.80;;
7541;SDS011;3812;50.006;8.230;2022-10-04T12:00:19;5.47;;;3.80;;
7541;SDS011;3812;50.006;8.230;2022-10-04T12:08:32;6.03;;;3.77;;
7541;SDS011;3812;50.006;8.230;2022-10-04T12:13:52;6.73;;;3.47;;
7541;SDS011;3812;50.006;8.230;2022-10-04T12:16:35;6.53;;;3.40;;
7541;SDS011;3812;50.006;8.230;2022-10-04T12:19:12;4.93;;;3.53;;
7541;SDS011;3812;50.006;8.230;2022-10-04T12:21:57;6.20;;;3.47;;
7541;SDS011;3812;50.006;8.230;2022-10-04T12:27:20;6.77;;;3.97;;
7541;SDS011;3812;50.006;8.230;2022-10-04T12:32:34;8.27;;;3.63;;
7541;SDS011;3812;50.006;8.230;2022-10-04T12:35:08;6.47;;;3.37;;
7541;SDS011;3812;50.006;8.230;2022-10-04T12:37:46;5.87;;;3.33;;
7541;SDS011;3812;50.006;8.230;2022-10-04T12:40:20;5.37;;;3.30;;
7541;SDS011;3812;50.006;8.230;2022-10-04T12:42:53;5.70;;;3.67;;
7541;SDS011;3812;50.006;8.230;2022-10-04T12:45:26;5.03;;;3.23;;
7541;SDS011;3812;50.006;8.230;2022-10-04T12:48:05;3.53;;;2.77;;
7541;SDS011;3812;50.006;8.230;2022-10-04T12:50:40;5.73;;;3.40;;
7541;SDS011;3812;50.006;8.230;2022-10-04T12:53:14;4.40;;;3.03;;
7541;SDS011;3812;50.006;8.230;2022-10-04T12:55:54;6.23;;;3.37;;
7541;SDS011;3812;50.006;8.230;2022-10-04T12:58:27;5.37;;;3.27;;
7541;SDS011;3812;50.006;8.230;2022-10-04T13:01:01;6.53;;;2.63;;
7541;SDS011;3812;50.006;8.230;2022-10-04T13:03:31;7.67;;;3.23;;
7541;SDS011;3812;50.006;8.230;2022-10-04T13:06:06;4.83;;;2.70;;
7541;SDS011;3812;50.006;8.230;2022-10-04T13:08:42;4.90;;;2.77;;
7541;SDS011;3812;50.006;8.230;2022-10-04T13:14:13;4.20;;;3.00;;
7541;SDS011;3812;50.006;8.230;2022-10-04T13:16:44;5.23;;;3.00;;
7541;SDS011;3812;50.006;8.230;2022-10-04T13:19:16;4.93;;;2.85;;
7541;SDS011;3812;50.006;8.230;2022-10-04T13:21:50;3.67;;;2.55;;
7541;SDS011;3812;50.006;8.230;2022-10-04T13:24:23;8.35;;;3.20;;
7541;SDS011;3812;50.006;8.230;2022-10-04T13:26:53;5.70;;;2.60;;
7541;SDS011;3812;50.006;8.230;2022-10-04T13:29:24;5.70;;;2.90;;
7541;SDS011;3812;50.006;8.230;2022-10-04T13:31:55;5.53;;;3.30;;
7541;SDS011;3812;50.006;8.230;2022-10-04T13:34:25;4.65;;;2.70;;
7541;SDS011;3812;50.006;8.230;2022-10-04T13:42:36;4.45;;;2.70;;
7541;SDS011;3812;50.006;8.230;2022-10-04T13:45:23;5.22;;;2.40;;
7541;SDS011;3812;50.006;8.230;2022-10-04T13:47:55;4.95;;;2.80;;
7541;SDS011;3812;50.006;8.230;2022-10-04T13:50:26;5.07;;;3.28;;
7541;SDS011;3812;50.006;8.230;2022-10-04T13:52:55;4.75;;;2.60;;
7541;SDS011;3812;50.006;8.230;2022-10-04T13:55:44;4.95;;;2.97;;
7541;SDS011;3812;50.006;8.230;2022-10-04T13:58:33;6.10;;;2.83;;
7541;SDS011;3812;50.006;8.230;2022-10-04T14:01:16;6.32;;;4.45;;
7541;SDS011;3812;50.006;8.230;2022-10-04T14:03:49;7.60;;;4.47;;
7541;SDS011;3812;50.006;8.230;2022-10-04T14:09:18;6.03;;;4.40;;
7541;SDS011;3812;50.006;8.230;2022-10-04T14:11:54;8.15;;;4.95;;
7541;SDS011;3812;50.006;8.230;2022-10-04T14:17:31;6.82;;;5.13;;
7541;SDS011;3812;50.006;8.230;2022-10-04T14:23:11;9.63;;;5.03;;
7541;SDS011;3812;50.006;8.230;2022-10-04T14:26:06;5.40;;;3.60;;
7541;SDS011;3812;50.006;8.230;2022-10-04T14:28:45;9.32;;;4.68;;
7541;SDS011;3812;50.006;8.230;2022-10-04T14:31:19;4.80;;;4.22;;
7541;SDS011;3812;50.006;8.230;2022-10-04T14:39:42;5.95;;;4.20;;
7541;SDS011;3812;50.006;8.230;2022-10-04T14:42:22;8.40;;;4.45;;
7541;SDS011;3812;50.006;8.230;2022-10-04T14:45:02;5.53;;;3.67;;
7541;SDS011;3812;50.006;8.230;2022-10-04T14:50:19;4.57;;;3.70;;
7541;SDS011;3812;50.006;8.230;2022-10-04T14:52:50;4.72;;;3.60;;
7541;SDS011;3812;50.006;8.230;2022-10-04T14:55:48;3.95;;;3.10;;
7541;SDS011;3812;50.006;8.230;2022-10-04T14:58:19;6.72;;;4.68;;
7541;SDS011;3812;50.006;8.230;2022-10-04T15:01:00;6.80;;;4.57;;
7541;SDS011;3812;50.006;8.230;2022-10-04T15:03:32;6.05;;;4.85;;
7541;SDS011;3812;50.006;8.230;2022-10-04T15:06:08;6.43;;;4.40;;
7541;SDS011;3812;50.006;8.230;2022-10-04T15:08:46;6.10;;;4.30;;
7541;SDS011;3812;50.006;8.230;2022-10-04T15:11:32;4.47;;;3.70;;
7541;SDS011;3812;50.006;8.230;2022-10-04T15:14:01;6.22;;;4.40;;
7541;SDS011;3812;50.006;8.230;2022-10-04T15:16:32;7.18;;;4.97;;
7541;SDS011;3812;50.006;8.230;2022-10-04T15:19:03;4.93;;;4.22;;
7541;SDS011;3812;50.006;8.230;2022-10-04T15:21:44;6.65;;;4.65;;
7541;SDS011;3812;50.006;8.230;2022-10-04T15:24:22;6.65;;;4.20;;
7541;SDS011;3812;50.006;8.230;2022-10-04T15:26:56;7.32;;;3.85;;
7541;SDS011;3812;50.006;8.230;2022-10-04T15:29:27;5.45;;;4.22;;
7541;SDS011;3812;50.006;8.230;2022-10-04T15:32:05;7.63;;;4.72;;
7541;SDS011;3812;50.006;8.230;2022-10-04T15:34:34;6.13;;;4.03;;
7541;SDS011;3812;50.006;8.230;2022-10-04T15:37:05;7.78;;;5.35;;
7541;SDS011;3812;50.006;8.230;2022-10-04T15:39:39;6.65;;;4.88;;
7541;SDS011;3812;50.006;8.230;2022-10-04T15:42:13;5.90;;;4.40;;
7541;SDS011;3812;50.006;8.230;2022-10-04T15:44:47;8.50;;;4.63;;
7541;SDS011;3812;50.006;8.230;2022-10-04T15:47:20;15.35;;;5.38;;
7541;SDS011;3812;50.006;8.230;2022-10-04T15:49:56;8.23;;;5.25;;
7541;SDS011;3812;50.006;8.230;2022-10-04T15:52:39;7.70;;;5.13;;
7541;SDS011;3812;50.006;8.230;2022-10-04T15:55:09;8.48;;;4.78;;
7541;SDS011;3812;50.006;8.230;2022-10-04T15:57:51;6.93;;;4.65;;
7541;SDS011;3812;50.006;8.230;2022-10-04T16:00:21;6.15;;;4.18;;
7541;SDS011;3812;50.006;8.230;2022-10-04T16:02:51;7.88;;;5.30;;
7541;SDS011;3812;50.006;8.230;2022-10-04T16:05:23;5.90;;;4.07;;
7541;SDS011;3812;50.006;8.230;2022-10-04T16:10:50;7.10;;;4.73;;
7541;SDS011;3812;50.006;8.230;2022-10-04T16:16:23;6.97;;;4.77;;
7541;SDS011;3812;50.006;8.230;2022-10-04T16:18:56;6.23;;;4.70;;
7541;SDS011;3812;50.006;8.230;2022-10-04T16:21:35;8.57;;;5.03;;
7541;SDS011;3812;50.006;8.230;2022-10-04T16:27:05;8.13;;;5.63;;
7541;SDS011;3812;50.006;8.230;2022-10-04T16:29:43;6.33;;;5.00;;
7541;SDS011;3812;50.006;8.230;2022-10-04T16:32:18;7.27;;;4.80;;
7541;SDS011;3812;50.006;8.230;2022-10-04T16:34:48;7.60;;;5.63;;
7541;SDS011;3812;50.006;8.230;2022-10-04T16:37:25;9.83;;;6.10;;
7541;SDS011;3812;50.006;8.230;2022-10-04T16:39:54;8.60;;;5.50;;
7541;SDS011;3812;50.006;8.230;2022-10-04T16:42:31;9.23;;;6.13;;
7541;SDS011;3812;50.006;8.230;2022-10-04T16:47:51;9.82;;;6.65;;
7541;SDS011;3812;50.006;8.230;2022-10-04T16:53:14;10.73;;;6.70;;
7541;SDS011;3812;50.006;8.230;2022-10-04T16:55:48;9.00;;;6.37;;
7541;SDS011;3812;50.006;8.230;2022-10-04T17:04:09;11.47;;;6.73;;
7541;SDS011;3812;50.006;8.230;2022-10-04T17:06:40;9.77;;;6.53;;
7541;SDS011;3812;50.006;8.230;2022-10-04T17:09:16;10.27;;;6.87;;
7541;SDS011;3812;50.006;8.230;2022-10-04T17:11:47;10.13;;;6.67;;
7541;SDS011;3812;50.006;8.230;2022-10-04T17:17:15;11.03;;;6.63;;
7541;SDS011;3812;50.006;8.230;2022-10-04T17:19:48;9.47;;;7.07;;
7541;SDS011;3812;50.006;8.230;2022-10-04T17:22:18;9.87;;;6.77;;
7541;SDS011;3812;50.006;8.230;2022-10-04T17:24:51;9.93;;;7.10;;
7541;SDS011;3812;50.006;8.230;2022-10-04T17:27:26;13.33;;;8.20;;
7541;SDS011;3812;50.006;8.230;2022-10-04T17:30:02;12.13;;;7.80;;
7541;SDS011;3812;50.006;8.230;2022-10-04T17:32:34;10.53;;;7.40;;
7541;SDS011;3812;50.006;8.230;2022-10-04T17:35:15;12.90;;;8.53;;
7541;SDS011;3812;50.006;8.230;2022-10-04T17:37:45;13.50;;;8.03;;
7541;SDS011;3812;50.006;8.230;2022-10-04T17:40:19;13.90;;;9.37;;
7541;SDS011;3812;50.006;8.230;2022-10-04T17:42:54;13.43;;;9.93;;
7541;SDS011;3812;50.006;8.230;2022-10-04T17:45:28;15.77;;;10.70;;
7541;SDS011;3812;50.006;8.230;2022-10-04T17:47:59;15.73;;;9.83;;
7541;SDS011;3812;50.006;8.230;2022-10-04T17:50:49;15.73;;;10.43;;